Bookmark and Share
Track history (hours):
 

Althea

Last reported at 2014-Feb-28 11:32 UTC. Time now 2014-Apr-17 21:56 UTC.
Position N 36°47' W 000°23'.
Warning: this ship's position is 48 days out of date.

; draft 10 m.

Type: Cargo ship. MMSI: 215047000.

NotesDate/timePositionNaut miles runAvg speedWind from/ knotsBaromVisibWave heightAir tempDewpointWater temp
2014-Feb-28 11:32N 36°47' W 000°23'1312.9
2014-Feb-28 10:31N 36°50' W 000°07'1513.0
2014-Feb-28 09:21N 36°53' E 000°11'64413.1
2014-Feb-26 08:09N 36°31' E 013°34'4214.0
2014-Feb-26 05:07N 36°19' E 014°24'45112.7
2014-Feb-24 17:33N 37°29' E 023°42'1414.0
2014-Feb-24 16:33N 37°43' E 023°40'1010.3
2014-Feb-24 15:33N 37°50' E 023°31'0 0.2
2014-Feb-24 14:33N 37°50' E 023°31'0 0.0
2014-Feb-24 13:33N 37°50' E 023°31'0 0.0
2014-Feb-24 12:33N 37°50' E 023°31'0 0.0
2014-Feb-24 11:33N 37°50' E 023°31'0 0.0
2014-Feb-24 10:33N 37°50' E 023°31'0 0.0
2014-Feb-24 09:33N 37°50' E 023°31'0 0.0
2014-Feb-24 08:33N 37°50' E 023°31'0 0.0
2014-Feb-24 07:33N 37°50' E 023°31'0 0.0
2014-Feb-24 06:33N 37°50' E 023°31'0 0.0
2014-Feb-24 05:33N 37°50' E 023°31'0 0.0
2014-Feb-24 04:33N 37°50' E 023°31'0 0.0
2014-Feb-24 03:33N 37°50' E 023°31'0 0.0
2014-Feb-24 02:33N 37°50' E 023°31'0 0.1
2014-Feb-24 01:33N 37°50' E 023°31'4 4.0
2014-Feb-24 00:33N 37°50' E 023°36'9 8.7
2014-Feb-23 23:33N 37°44' E 023°43'1111.2
2014-Feb-23 22:33N 37°38' E 023°55'1312.7
2014-Feb-23 21:33N 37°39' E 024°11'1313.4
2014-Feb-23 20:33N 37°49' E 024°23'2713.7
2014-Feb-23 18:33N 38°10' E 024°45'294 6.1
2014-Feb-21 18:15N 41°38' E 029°16'912.4
2014-Feb-21 17:33N 41°46' E 029°19'30112.4
2014-Feb-20 17:16N 46°35' E 031°19'9 9.3
2014-Feb-20 16:20N 46°35' E 031°31'7 9.1
2014-Feb-20 15:33N 46°36' E 031°42'9 8.8
2014-Feb-20 14:34N 46°38' E 031°54'8 7.8
2014-Feb-20 13:34N 46°46' E 031°54'9 8.7
2014-Feb-20 12:33N 46°53' E 031°60'3 3.2
2014-Feb-20 11:31N 46°56' E 032°01'0 0.0
2014-Feb-20 10:31N 46°56' E 032°01'0 0.0
2014-Feb-20 09:31N 46°56' E 032°01'0 0.1
2014-Feb-20 08:31N 46°56' E 032°01'0 0.1
2014-Feb-20 07:31N 46°57' E 032°01'0 0.0
2014-Feb-20 06:31N 46°57' E 032°01'0 0.0
2014-Feb-20 05:31N 46°57' E 032°01'0 0.0
2014-Feb-20 04:31N 46°57' E 032°01'0 0.0
2014-Feb-20 03:31N 46°57' E 032°01'0 0.0
2014-Feb-20 02:31N 46°57' E 032°01'0 0.0
2014-Feb-20 01:31N 46°57' E 032°01'0 0.0
2014-Feb-20 00:31N 46°57' E 032°01'0 0.0
2014-Feb-19 23:31N 46°57' E 032°01'0 0.0
2014-Feb-19 22:31N 46°57' E 032°01'0 0.0
2014-Feb-19 21:31N 46°57' E 032°01'0 0.0
2014-Feb-19 20:31N 46°57' E 032°01'0 0.0
2014-Feb-19 19:31N 46°57' E 032°01'0 0.0
2014-Feb-19 18:31N 46°57' E 032°01'0 0.0
2014-Feb-19 17:31N 46°57' E 032°01'0 0.0
2014-Feb-19 16:31N 46°57' E 032°01'0 0.0
2014-Feb-19 15:31N 46°57' E 032°01'0 0.0
2014-Feb-19 14:31N 46°57' E 032°01'0 0.0
2014-Feb-19 13:28N 46°57' E 032°01'0 0.0
2014-Feb-19 12:31N 46°57' E 032°00'0 0.0
2014-Feb-19 11:31N 46°57' E 032°00'0 0.0
2014-Feb-19 10:31N 46°57' E 032°00'0 0.0
2014-Feb-19 09:31N 46°57' E 032°00'0 0.0
2014-Feb-19 08:31N 46°56' E 032°01'0 0.2
2014-Feb-19 07:31N 46°56' E 032°01'1 1.2
2014-Feb-19 06:33N 46°56' E 031°59'0 0.1
2014-Feb-19 05:33N 46°57' E 031°59'0 0.0
2014-Feb-19 04:33N 46°57' E 031°59'0 0.0
2014-Feb-19 03:33N 46°57' E 031°59'0 0.0
2014-Feb-19 02:33N 46°57' E 031°59'0 0.0
2014-Feb-19 01:33N 46°57' E 031°59'0 0.0
2014-Feb-19 00:33N 46°57' E 031°59'0 0.0
2014-Feb-18 23:33N 46°57' E 031°59'0 0.0
2014-Feb-18 22:33N 46°57' E 031°59'0 0.0
2014-Feb-18 20:03N 46°57' E 031°59'0 0.0
2014-Feb-18 19:33N 46°57' E 031°59'0 0.0
2014-Feb-18 18:33N 46°57' E 031°59'0 0.0
2014-Feb-18 17:33N 46°57' E 031°59'0 0.0
2014-Feb-18 16:33N 46°57' E 031°59'0 0.0
2014-Feb-18 15:33N 46°57' E 031°59'0 0.0
2014-Feb-18 14:33N 46°57' E 031°59'0 0.0
2014-Feb-18 13:33N 46°57' E 031°59'0 0.0
2014-Feb-18 12:33N 46°57' E 031°59'0 0.0
2014-Feb-18 11:33N 46°57' E 031°59'  

Dump ship's entire track history

sailing weather and tide predictions

Althea — 9HAQ7 — position and weather